Austinburg, Ohio
Current Conditions -  °F | °C
As of 5:53 PM on Wednesday 22 Oct 2014 (Local Time) from KHZY Reporting Station
Overcast Overcast  
Wind Chill: 49°   Ceiling: 4200
Heat Index: 49°   Visibility: 10mi
Dew Point: 41°   Wind: 0mph
Humidity: 74%   Direction: NA
Pressure: 30.23"   Gusts: NA
Location:  41.77°N, 80.85°W
Report Text: KHZY 222153Z AUTO 00000KT 10SM OVC042 09/05 A3023 RMK AO2 SLP241 T00940050
Loading
Personal Weather Stations






























Interactive Weather Map
Tropical Storm Tracking
New forecast layout! Learn more

10-Day Weather Forecast

Advertisements
Track Severe Weather on mobile